Hardtner, Kansas
Current Conditions -  °F | °C
As of 9:30 PM on Wednesday 22 Oct 2014 (Local Time) from KAVK Reporting Station
Broken Clouds Broken Clouds  
Wind Chill: 63°   Ceiling: 11000
Heat Index: 63°   Visibility: 10mi
Dew Point: 59°   Wind: 14mph
Humidity: 88%   Direction: 210°SSW
Pressure: 30.1"   Gusts: NA
Location:  37.01°N, 98.65°W
Report Text: KAVK 230230Z AUTO 21012KT 10SM BKN110 17/15 A3010 RMK AO2
Loading
Personal Weather Stations






























Interactive Weather Map
Tropical Storm Tracking
New forecast layout! Learn more

10-Day Weather Forecast

Advertisements
Track Severe Weather on mobile